Time;durP1;ratioP1;P1;durP2;ratioP2;P2;SDS_P1;SDS_P2;PMS_P1;PMS_P2;Temp;Humidity;BMP_temperature;BMP_pressure;BME280_temperature;BME280_humidity;BME280_pressure;Samples;Min_cycle;Max_cycle;Signal;HPM_P1;HPM_P2
2021/09/28 00:02:18;;;;;;;;;;;;;;;14.93;86.82;100046.94;5014224;28;862;-57
2021/09/28 00:04:45;;;;;;;;;;;;;;;15.05;86.55;100046.31;5014102;28;1083;-57
2021/09/28 00:07:12;;;;;;;;;;;;;;;15.13;86.23;100060.09;5014097;28;925;-57
2021/09/28 00:09:38;;;;;;;;;;;;;;;15.13;85.94;100046.97;5014111;28;818;-57
2021/09/28 00:12:06;;;;;;;;;;;;;;;15.07;85.88;100040.34;5013870;28;897;-57
2021/09/28 00:14:32;;;;;;;;;;;;;;;14.98;85.89;100043.69;5014089;28;858;-57
2021/09/28 00:17:00;;;;;;;;;;;;;;;14.91;85.75;100046.59;5013890;28;1387;-58
2021/09/28 00:19:26;;;;;;;;;;;;;;;14.87;85.83;100041.09;4996453;28;831;-57
2021/09/28 00:21:53;;;;;;;;;;;;;;;14.84;86.04;100039.16;5013720;28;1977;-57
2021/09/28 00:24:20;;;;;;;;;;;;;;;14.83;86.05;100029.25;5013784;28;866;-57
2021/09/28 00:26:47;;;;;;;;;;;;;;;14.83;85.91;100036.78;5013595;28;807;-57
2021/09/28 00:29:14;;;;;;;;;;;;;;;14.81;85.79;100033.69;5013606;28;886;-57
2021/09/28 00:31:41;;;;;;;;;;;;;;;14.79;85.75;100036.09;5013647;28;829;-57
2021/09/28 00:34:08;;;;;;;;;;;;;;;14.74;85.69;100029.00;5013615;28;835;-57
2021/09/28 00:36:35;;;;;;;;;;;;;;;14.67;85.57;100026.38;5013475;28;901;-57
2021/09/28 00:39:03;;;;;;;;;;;;;;;14.61;85.79;100028.06;4995941;28;1692;-57
2021/09/28 00:41:29;;;;;;;;;;;;;;;14.55;85.75;100026.94;4996015;28;1944;-57
2021/09/28 00:43:58;;;;;;;;;;;;;;;14.53;85.83;100023.78;5013264;28;910;-57
2021/09/28 00:46:24;;;;;;;;;;;;;;;14.54;86.11;100030.94;5013302;28;904;-57
2021/09/28 00:48:52;;;;;;;;;;;;;;;14.55;86.19;100019.44;5013241;28;859;-57
2021/09/28 00:51:19;;;;;;;;;;;;;;;14.67;86.08;100035.50;5013012;28;1841;-57
2021/09/28 00:53:48;;;;;;;;;;;;;;;14.79;85.93;100036.88;5013089;28;875;-57
2021/09/28 00:56:17;;;;;;;;;;;;;;;14.81;85.67;100034.47;4995495;28;878;-57
2021/09/28 00:58:45;;;;;;;;;;;;;;;14.81;85.51;100033.69;5013095;28;866;-57
2021/09/28 01:01:13;;;;;;;;;;;;;;;14.76;85.29;100037.72;5012937;28;1886;-57
2021/09/28 01:03:40;;;;;;;;;;;;;;;14.69;85.22;100038.63;5012364;28;874;-57
2021/09/28 01:06:08;;;;;;;;;;;;;;;14.63;85.10;100045.13;5013096;28;819;-57
2021/09/28 01:08:35;;;;;;;;;;;;;;;14.63;85.26;100037.53;5012966;28;890;-57
2021/09/28 01:11:03;;;;;;;;;;;;;;;14.66;84.87;100035.94;4995329;28;843;-57
2021/09/28 01:13:29;;;;;;;;;;;;;;;14.72;84.87;100037.00;5013059;28;868;-57
2021/09/28 01:15:59;;;;;;;;;;;;;;;14.88;84.56;100036.31;4995259;28;926;-57
2021/09/28 01:18:27;;;;;;;;;;;;;;;14.95;84.36;100032.59;5012599;28;1434;-57
2021/09/28 01:20:55;;;;;;;;;;;;;;;15.02;84.47;100033.28;5012644;28;1981;-57
2021/09/28 01:23:22;;;;;;;;;;;;;;;15.10;84.22;100033.91;5012632;28;871;-57
2021/09/28 01:25:49;;;;;;;;;;;;;;;15.15;83.95;100035.38;5012723;28;851;-57
2021/09/28 01:28:16;;;;;;;;;;;;;;;15.14;84.08;100031.06;5012587;28;807;-57
2021/09/28 01:30:43;;;;;;;;;;;;;;;15.17;84.09;100031.00;5012603;28;835;-57
2021/09/28 01:33:10;;;;;;;;;;;;;;;15.21;84.00;100036.47;5012419;28;839;-57
2021/09/28 01:35:38;;;;;;;;;;;;;;;15.25;83.76;100043.53;5012499;28;886;-57
2021/09/28 01:38:04;;;;;;;;;;;;;;;15.29;83.71;100033.09;5012313;28;926;-57
2021/09/28 01:40:31;;;;;;;;;;;;;;;15.35;83.70;100043.75;5012355;28;1918;-57
2021/09/28 01:43:04;;;;;;;;;;;;;;;15.37;83.43;100039.31;5012321;28;839;-57
2021/09/28 01:45:31;;;;;;;;;;;;;;;15.39;83.37;100038.91;5012276;28;792;-57
2021/09/28 01:47:58;;;;;;;;;;;;;;;15.39;83.43;100039.69;5012517;28;843;-57
2021/09/28 01:50:25;;;;;;;;;;;;;;;15.46;83.66;100038.75;5012323;28;842;-57
2021/09/28 01:52:53;;;;;;;;;;;;;;;15.53;83.18;100046.94;5012136;28;922;-57
2021/09/28 01:55:20;;;;;;;;;;;;;;;15.61;83.10;100044.78;5012101;28;878;-57
2021/09/28 01:57:46;;;;;;;;;;;;;;;15.74;82.88;100042.16;5012194;28;846;-57
2021/09/28 02:00:14;;;;;;;;;;;;;;;15.87;82.34;100043.84;5011991;28;1965;-57
2021/09/28 02:02:41;;;;;;;;;;;;;;;15.96;82.15;100037.69;5012089;28;870;-57
2021/09/28 02:05:08;;;;;;;;;;;;;;;16.03;81.91;100043.06;5012086;28;822;-57
2021/09/28 02:07:35;;;;;;;;;;;;;;;16.07;81.56;100045.78;5012005;28;885;-57
2021/09/28 02:10:02;;;;;;;;;;;;;;;16.10;81.11;100047.69;5011996;28;896;-57
2021/09/28 02:12:29;;;;;;;;;;;;;;;16.09;80.97;100051.72;5011888;28;811;-57
2021/09/28 02:14:56;;;;;;;;;;;;;;;16.02;80.90;100047.06;5011822;28;863;-57
2021/09/28 02:17:23;;;;;;;;;;;;;;;15.95;80.75;100044.47;5011847;28;1362;-57
2021/09/28 02:19:50;;;;;;;;;;;;;;;15.87;80.78;100048.63;5012139;28;847;-57
2021/09/28 02:22:16;;;;;;;;;;;;;;;15.80;80.87;100060.72;5012009;28;1910;-57
2021/09/28 02:24:44;;;;;;;;;;;;;;;15.79;80.92;100050.00;5011729;28;859;-57
2021/09/28 02:27:11;;;;;;;;;;;;;;;15.83;80.75;100050.69;5011755;28;815;-57
2021/09/28 02:29:37;;;;;;;;;;;;;;;15.89;80.58;100048.97;5011725;28;919;-57
2021/09/28 02:32:04;;;;;;;;;;;;;;;15.95;80.39;100052.81;5011672;28;1077;-57
2021/09/28 02:34:35;;;;;;;;;;;;;;;15.95;80.34;100052.81;5011779;28;866;-58
2021/09/28 02:37:03;;;;;;;;;;;;;;;15.98;80.03;100040.00;5011680;28;846;-57
2021/09/28 02:39:29;;;;;;;;;;;;;;;15.97;80.02;100044.81;5011703;28;1053;-57
2021/09/28 02:41:56;;;;;;;;;;;;;;;15.91;79.78;100040.97;5011567;28;1949;-57
2021/09/28 02:44:22;;;;;;;;;;;;;;;15.79;79.82;100041.63;5011558;28;894;-58
2021/09/28 02:46:50;;;;;;;;;;;;;;;15.64;80.08;100044.72;5011534;28;878;-57
2021/09/28 02:49:17;;;;;;;;;;;;;;;15.52;80.30;100042.59;5011622;28;966;-57
2021/09/28 02:51:44;;;;;;;;;;;;;;;15.42;80.31;100044.38;5011553;28;902;-57
2021/09/28 02:54:11;;;;;;;;;;;;;;;15.35;80.56;100046.53;5011344;28;860;-57
2021/09/28 02:56:38;;;;;;;;;;;;;;;15.28;80.67;100044.69;4994097;28;816;-57
2021/09/28 02:59:04;;;;;;;;;;;;;;;15.22;80.63;100049.19;5011329;28;883;-57
2021/09/28 03:01:31;;;;;;;;;;;;;;;15.13;80.74;100048.94;5011428;28;1882;-57
2021/09/28 03:03:58;;;;;;;;;;;;;;;15.00;80.74;100046.03;5011317;28;838;-57
2021/09/28 03:06:26;;;;;;;;;;;;;;;14.89;81.09;100047.03;5011595;28;827;-57
2021/09/28 03:08:53;;;;;;;;;;;;;;;14.84;81.30;100046.72;5011352;28;827;-57
2021/09/28 03:11:20;;;;;;;;;;;;;;;14.80;81.26;100049.56;5011372;28;898;-57
2021/09/28 03:13:47;;;;;;;;;;;;;;;14.72;81.44;100053.69;5011668;28;839;-57
2021/09/28 03:16:13;;;;;;;;;;;;;;;14.66;81.61;100047.06;5011267;28;873;-57
2021/09/28 03:18:40;;;;;;;;;;;;;;;14.59;81.73;100049.94;5011138;28;1331;-57
2021/09/28 03:21:07;;;;;;;;;;;;;;;14.51;81.91;100052.06;5011229;28;1910;-57
2021/09/28 03:23:34;;;;;;;;;;;;;;;14.46;82.38;100044.97;5011356;28;795;-57
2021/09/28 03:26:01;;;;;;;;;;;;;;;14.43;82.29;100048.59;5011066;28;830;-57
2021/09/28 03:28:29;;;;;;;;;;;;;;;14.34;82.59;100045.59;5014583;28;851;-57
2021/09/28 03:30:56;;;;;;;;;;;;;;;14.37;82.79;100055.84;5014820;28;823;-57
2021/09/28 03:33:23;;;;;;;;;;;;;;;14.39;82.41;100044.31;5014740;28;932;-57
2021/09/28 03:35:50;;;;;;;;;;;;;;;14.38;82.50;100048.28;5014891;28;843;-57
2021/09/28 03:38:16;;;;;;;;;;;;;;;14.35;82.43;100054.69;5014682;28;835;-57
2021/09/28 03:40:43;;;;;;;;;;;;;;;14.39;82.78;100053.44;5014786;28;1937;-57
2021/09/28 03:43:11;;;;;;;;;;;;;;;14.44;82.60;100052.16;5014648;28;835;-57
2021/09/28 03:45:37;;;;;;;;;;;;;;;14.39;82.40;100052.66;5014522;28;799;-57
2021/09/28 03:48:05;;;;;;;;;;;;;;;14.32;82.54;100053.56;5014318;28;920;-57
2021/09/28 03:50:33;;;;;;;;;;;;;;;14.23;82.70;100048.53;5014538;28;823;-57
2021/09/28 03:53:00;;;;;;;;;;;;;;;14.15;82.88;100057.41;5014360;28;823;-57
2021/09/28 03:55:27;;;;;;;;;;;;;;;14.16;83.28;100050.63;5014242;28;910;-57
2021/09/28 03:57:54;;;;;;;;;;;;;;;14.09;83.12;100046.75;5014307;28;898;-57
2021/09/28 04:00:22;;;;;;;;;;;;;;;14.06;83.20;100041.25;5014176;28;1898;-57
2021/09/28 04:02:49;;;;;;;;;;;;;;;14.04;83.45;100047.25;5014156;28;854;-57
2021/09/28 04:05:16;;;;;;;;;;;;;;;14.00;83.19;100049.28;5014347;28;899;-57
2021/09/28 04:07:43;;;;;;;;;;;;;;;13.99;83.47;100055.25;5014102;28;951;-57
2021/09/28 04:10:11;;;;;;;;;;;;;;;13.92;83.42;100060.94;5014240;28;894;-57
2021/09/28 04:12:37;;;;;;;;;;;;;;;13.85;83.58;100064.59;4996569;28;874;-57
2021/09/28 04:15:05;;;;;;;;;;;;;;;13.86;83.55;100066.16;5013915;28;870;-57
2021/09/28 04:17:32;;;;;;;;;;;;;;;13.82;83.44;100065.41;5013872;28;1264;-57
2021/09/28 04:19:59;;;;;;;;;;;;;;;13.76;83.52;100067.09;5013808;28;899;-57
2021/09/28 04:22:27;;;;;;;;;;;;;;;13.78;84.07;100070.22;4996350;28;835;-57
2021/09/28 04:24:54;;;;;;;;;;;;;;;13.86;83.85;100063.38;5013676;28;874;-57
2021/09/28 04:27:21;;;;;;;;;;;;;;;13.84;83.83;100060.22;5013561;28;932;-57
2021/09/28 04:29:48;;;;;;;;;;;;;;;13.90;83.79;100061.34;5013932;28;823;-57
2021/09/28 04:32:15;;;;;;;;;;;;;;;13.92;83.88;100063.69;5013592;28;819;-57
2021/09/28 04:34:42;;;;;;;;;;;;;;;13.92;83.63;100060.94;5013612;28;1137;-57
2021/09/28 04:37:11;;;;;;;;;;;;;;;13.90;83.52;100058.56;5013719;28;863;-57
2021/09/28 04:39:38;;;;;;;;;;;;;;;13.92;83.87;100055.38;4995414;28;951;-57
2021/09/28 04:42:05;;;;;;;;;;;;;;;13.98;83.96;100062.03;5013235;28;1882;-57
2021/09/28 04:44:32;;;;;;;;;;;;;;;14.06;83.64;100061.50;5013420;28;830;-57
2021/09/28 04:47:00;;;;;;;;;;;;;;;14.17;83.37;100058.56;4995860;28;903;-57
2021/09/28 04:49:26;;;;;;;;;;;;;;;14.27;83.00;100063.16;5013276;28;913;-57
2021/09/28 04:51:53;;;;;;;;;;;;;;;14.38;82.82;100063.00;5013295;28;1069;-57
2021/09/28 04:54:20;;;;;;;;;;;;;;;14.45;82.28;100062.09;5013065;28;958;-57
2021/09/28 04:56:47;;;;;;;;;;;;;;;14.47;82.54;100063.22;5013366;28;847;-57
2021/09/28 04:59:14;;;;;;;;;;;;;;;14.53;82.18;100071.88;5013046;28;950;-57
2021/09/28 05:01:41;;;;;;;;;;;;;;;14.62;81.99;100072.16;5012906;28;1878;-57
2021/09/28 05:04:09;;;;;;;;;;;;;;;14.73;82.05;100074.75;5013088;28;890;-57
2021/09/28 05:06:35;;;;;;;;;;;;;;;14.93;81.70;100074.00;5012987;28;807;-57
2021/09/28 05:09:02;;;;;;;;;;;;;;;15.13;81.23;100066.47;5012926;28;882;-57
2021/09/28 05:16:38;;;;;;;;;;;;;;;15.85;79.00;100070.56;5852813;22;1680;-61
2021/09/28 05:19:05;;;;;;;;;;;;;;;16.02;78.28;100074.94;5033095;28;861;-61
2021/09/28 05:21:31;;;;;;;;;;;;;;;16.22;77.58;100077.69;5032566;28;1979;-61
2021/09/28 05:23:58;;;;;;;;;;;;;;;16.38;76.53;100074.09;5032463;28;877;-60
2021/09/28 05:26:25;;;;;;;;;;;;;;;16.57;75.89;100085.63;5032337;28;862;-61
2021/09/28 05:28:52;;;;;;;;;;;;;;;16.74;74.78;100084.38;5032325;28;861;-61
2021/09/28 05:31:19;;;;;;;;;;;;;;;16.98;74.27;100076.59;5032244;28;866;-61
2021/09/28 05:33:46;;;;;;;;;;;;;;;17.25;72.84;100081.84;5032550;28;963;-61
2021/09/28 05:36:12;;;;;;;;;;;;;;;17.53;72.21;100085.06;5032165;28;815;-61
2021/09/28 05:38:40;;;;;;;;;;;;;;;17.80;71.07;100079.06;5032198;28;862;-61
2021/09/28 05:41:09;;;;;;;;;;;;;;;18.05;70.22;100081.13;5031978;28;1914;-61
2021/09/28 05:43:36;;;;;;;;;;;;;;;18.32;69.01;100077.09;5032518;28;882;-61
2021/09/28 05:46:03;;;;;;;;;;;;;;;18.52;68.14;100088.81;5032288;28;815;-61
2021/09/28 05:48:30;;;;;;;;;;;;;;;18.82;66.89;100086.66;5032471;28;830;-61
2021/09/28 05:50:57;;;;;;;;;;;;;;;19.28;65.57;100092.63;5032007;28;881;-61
2021/09/28 05:53:26;;;;;;;;;;;;;;;19.71;63.10;100093.88;5032307;28;862;-60
2021/09/28 05:55:54;;;;;;;;;;;;;;;20.04;62.26;100089.84;5014144;28;1196;-61
2021/09/28 05:58:20;;;;;;;;;;;;;;;20.24;61.30;100092.25;5031851;28;783;-61
2021/09/28 06:00:47;;;;;;;;;;;;;;;20.30;59.86;100096.81;5031765;28;1969;-61
2021/09/28 06:03:13;;;;;;;;;;;;;;;20.66;58.56;100086.19;5031824;28;799;-61
2021/09/28 06:05:40;;;;;;;;;;;;;;;21.07;55.73;100101.66;5032079;28;815;-61
2021/09/28 06:08:07;;;;;;;;;;;;;;;21.13;55.10;100096.19;5031878;28;842;-61
2021/09/28 06:10:34;;;;;;;;;;;;;;;20.99;55.12;100101.19;5014104;28;1315;-61
2021/09/28 06:13:01;;;;;;;;;;;;;;;21.10;54.94;100097.91;5031971;28;858;-61
2021/09/28 06:15:28;;;;;;;;;;;;;;;20.94;54.44;100107.41;5031600;28;959;-61
2021/09/28 06:17:55;;;;;;;;;;;;;;;20.64;55.28;100111.13;5031623;28;1400;-61
2021/09/28 06:20:21;;;;;;;;;;;;;;;20.60;55.19;100112.03;5031717;28;1918;-61
2021/09/28 06:22:48;;;;;;;;;;;;;;;20.58;54.97;100106.09;5031801;28;897;-61
2021/09/28 06:25:15;;;;;;;;;;;;;;;20.51;54.84;100105.59;5032141;28;880;-61
2021/09/28 06:27:42;;;;;;;;;;;;;;;20.87;54.13;100104.94;5031822;28;799;-61
2021/09/28 06:30:09;;;;;;;;;;;;;;;21.24;52.82;100104.16;5032296;28;803;-61
2021/09/28 06:32:35;;;;;;;;;;;;;;;21.71;52.61;100109.28;5031602;28;1021;-61
2021/09/28 06:35:02;;;;;;;;;;;;;;;21.99;51.39;100109.97;5032184;28;783;-61
2021/09/28 06:37:29;;;;;;;;;;;;;;;22.25;50.40;100114.44;5032093;28;855;-61
2021/09/28 06:39:57;;;;;;;;;;;;;;;22.11;50.20;100113.06;5031528;28;894;-61
2021/09/28 06:42:24;;;;;;;;;;;;;;;21.83;50.69;100118.78;5031650;28;2004;-61
2021/09/28 06:44:50;;;;;;;;;;;;;;;22.06;49.78;100120.09;5031652;28;874;-61
2021/09/28 06:47:17;;;;;;;;;;;;;;;22.72;48.84;100139.06;5031316;28;889;-61
2021/09/28 06:49:45;;;;;;;;;;;;;;;23.43;46.48;100123.38;5031529;28;889;-61
2021/09/28 06:52:12;;;;;;;;;;;;;;;23.62;45.60;100131.69;5031584;28;795;-61
2021/09/28 06:54:39;;;;;;;;;;;;;;;23.68;45.82;100132.53;5031989;28;767;-61
2021/09/28 06:57:06;;;;;;;;;;;;;;;23.99;44.72;100134.13;5031933;28;751;-62
2021/09/28 06:59:33;;;;;;;;;;;;;;;23.15;46.08;100138.97;5031419;28;866;-61
2021/09/28 07:02:00;;;;;;;;;;;;;;;22.32;47.99;100137.41;5032492;28;1878;-61
2021/09/28 07:04:27;;;;;;;;;;;;;;;21.56;49.22;100136.50;5035516;28;806;-61
2021/09/28 07:06:53;;;;;;;;;;;;;;;20.89;51.42;100136.16;5035483;28;799;-61
2021/09/28 07:09:19;;;;;;;;;;;;;;;21.09;51.82;100143.34;5035072;28;822;-61
2021/09/28 07:11:46;;;;;;;;;;;;;;;21.30;50.76;100142.41;5034947;28;1216;-61
2021/09/28 07:14:13;;;;;;;;;;;;;;;21.05;51.64;100148.34;5034897;28;810;-61
2021/09/28 07:16:40;;;;;;;;;;;;;;;20.71;52.04;100150.13;5034887;28;1217;-61
2021/09/28 07:19:07;;;;;;;;;;;;;;;20.55;52.33;100146.31;5034818;28;877;-61
2021/09/28 07:21:33;;;;;;;;;;;;;;;20.89;51.75;100150.19;5034672;28;1902;-61
2021/09/28 07:24:00;;;;;;;;;;;;;;;21.09;50.73;100141.31;5016855;28;1232;-61
2021/09/28 07:26:26;;;;;;;;;;;;;;;21.19;51.03;100144.91;5034669;28;842;-61
2021/09/28 07:28:53;;;;;;;;;;;;;;;21.73;49.41;100151.78;5034568;28;824;-61
2021/09/28 07:31:20;;;;;;;;;;;;;;;21.97;48.60;100149.06;5034603;28;870;-61
2021/09/28 07:33:47;;;;;;;;;;;;;;;22.10;48.52;100151.69;5034517;28;849;-61
2021/09/28 07:36:14;;;;;;;;;;;;;;;22.47;48.20;100145.94;5034572;28;805;-61
2021/09/28 07:38:42;;;;;;;;;;;;;;;22.71;47.00;100153.66;5034370;28;834;-61
2021/09/28 07:41:09;;;;;;;;;;;;;;;22.45;47.48;100156.91;5034342;28;1882;-61
2021/09/28 07:43:36;;;;;;;;;;;;;;;22.29;47.72;100151.66;5034307;28;830;-61
2021/09/28 07:46:03;;;;;;;;;;;;;;;21.93;48.42;100147.66;5034198;28;826;-61
2021/09/28 07:48:31;;;;;;;;;;;;;;;21.95;48.43;100153.59;5034202;28;881;-61
2021/09/28 07:50:59;;;;;;;;;;;;;;;22.03;48.14;100152.03;5034199;28;885;-61
2021/09/28 07:53:27;;;;;;;;;;;;;;;22.14;48.00;100148.69;5034558;28;795;-61
2021/09/28 07:55:54;;;;;;;;;;;;;;;21.96;48.29;100160.81;5034568;28;858;-61
2021/09/28 07:58:22;;;;;;;;;;;;;;;21.86;48.44;100168.47;5034317;28;803;-61
2021/09/28 08:00:49;;;;;;;;;;;;;;;21.71;48.83;100151.47;5034134;28;1941;-61
2021/09/28 08:03:16;;;;;;;;;;;;;;;21.84;48.48;100164.56;5016420;28;870;-61
2021/09/28 08:05:43;;;;;;;;;;;;;;;22.02;48.08;100159.69;5034286;28;838;-61
2021/09/28 08:08:08;;;;;;;;;;;;;;;22.15;47.98;100153.88;5034174;28;803;-61
2021/09/28 08:10:35;;;;;;;;;;;;;;;22.03;47.57;100152.78;5034008;28;814;-61
2021/09/28 08:13:05;;;;;;;;;;;;;;;21.94;48.34;100150.00;5034385;28;830;-61
2021/09/28 08:15:33;;;;;;;;;;;;;;;21.86;48.57;100153.63;5033586;28;1089;-62
2021/09/28 08:18:00;;;;;;;;;;;;;;;21.86;48.20;100148.00;5033551;28;1237;-61
2021/09/28 08:20:27;;;;;;;;;;;;;;;21.91;48.79;100150.97;5033613;28;1981;-61
2021/09/28 08:22:55;;;;;;;;;;;;;;;21.82;48.23;100145.34;5033698;28;882;-61
2021/09/28 08:25:32;;;;;;;;;;;;;;;21.77;48.38;100143.19;5033858;28;873;-61
2021/09/28 08:30:55;;;;;;;;;;;;;;;21.96;48.25;100146.75;4953409;28;1228;-61
2021/09/28 08:33:22;;;;;;;;;;;;;;;21.88;47.77;100139.88;4953516;29;917;-61
2021/09/28 08:35:49;;;;;;;;;;;;;;;21.92;48.05;100141.25;4953440;29;891;-61
2021/09/28 08:38:15;;;;;;;;;;;;;;;21.95;47.50;100142.34;4953640;29;815;-61
2021/09/28 08:40:42;;;;;;;;;;;;;;;21.76;47.45;100139.59;4953334;29;1890;-61
2021/09/28 08:43:09;;;;;;;;;;;;;;;21.67;48.29;100147.25;4953245;29;867;-61
2021/09/28 08:45:41;;;;;;;;;;;;;;;21.79;48.06;100147.06;4953414;29;914;-61
2021/09/28 08:48:10;;;;;;;;;;;;;;;21.84;47.75;100147.69;4952979;29;1055;-61
2021/09/28 08:50:38;;;;;;;;;;;;;;;21.88;47.73;100143.47;4952948;29;859;-61
2021/09/28 08:53:08;;;;;;;;;;;;;;;21.69;47.50;100145.53;4952934;29;820;-61
2021/09/28 08:55:36;;;;;;;;;;;;;;;21.37;48.16;100139.28;4952917;29;942;-61
2021/09/28 08:58:19;;;;;;;;;;;;;;;21.40;48.62;100143.19;4952826;29;816;-61
2021/09/28 09:00:47;;;;;;;;;;;;;;;21.46;48.06;100146.19;4952693;29;1886;-61
2021/09/28 09:03:31;;;;;;;;;;;;;;;21.56;48.07;100153.38;4952761;29;885;-61
2021/09/28 09:05:59;;;;;;;;;;;;;;;21.98;47.42;100150.63;4952663;29;907;-61
2021/09/28 09:08:27;;;;;;;;;;;;;;;22.29;46.45;100151.66;5030350;28;953;-61
2021/09/28 09:11:11;;;;;;;;;;;;;;;22.58;45.90;100151.06;5014903;28;1196;-61
2021/09/28 09:13:40;;;;;;;;;;;;;;;22.74;45.30;100152.69;5032664;28;802;-61
2021/09/28 09:16:13;;;;;;;;;;;;;;;22.67;44.91;100153.81;5032737;28;896;-61
2021/09/28 09:18:41;;;;;;;;;;;;;;;22.69;45.18;100151.31;5032393;28;1418;-61
2021/09/28 09:21:08;;;;;;;;;;;;;;;22.73;44.78;100156.78;5032459;28;1899;-61
2021/09/28 09:23:36;;;;;;;;;;;;;;;22.73;45.34;100151.13;5032433;28;882;-61
2021/09/28 09:26:03;;;;;;;;;;;;;;;22.71;44.65;100151.59;5031873;28;803;-61
2021/09/28 09:28:34;;;;;;;;;;;;;;;22.54;44.90;100154.03;5032404;28;846;-61
2021/09/28 09:31:16;;;;;;;;;;;;;;;22.35;44.97;100150.53;5032312;28;872;-61
2021/09/28 09:33:44;;;;;;;;;;;;;;;21.94;45.72;100141.56;5032307;28;810;-61
2021/09/28 09:36:15;;;;;;;;;;;;;;;21.76;45.96;100145.22;5032137;28;810;-61
2021/09/28 09:38:43;;;;;;;;;;;;;;;21.70;46.26;100147.09;5032202;28;854;-61
2021/09/28 09:41:10;;;;;;;;;;;;;;;21.76;46.34;100153.66;5032058;28;1959;-61
2021/09/28 09:43:37;;;;;;;;;;;;;;;21.67;46.20;100148.03;5032043;28;791;-61
2021/09/28 09:46:07;;;;;;;;;;;;;;;21.69;46.37;100144.75;5032037;28;807;-61
2021/09/28 09:48:34;;;;;;;;;;;;;;;21.70;46.14;100143.50;5031990;28;901;-61
2021/09/28 09:51:11;;;;;;;;;;;;;;;22.03;45.90;100146.41;5031891;28;899;-61
2021/09/28 09:54:00;;;;;;;;;;;;;;;21.99;45.55;100146.56;5031962;28;862;-61
2021/09/28 09:56:45;;;;;;;;;;;;;;;22.02;45.83;100150.47;5031966;28;854;-61
2021/09/28 09:59:12;;;;;;;;;;;;;;;22.11;45.11;100147.63;5031864;28;807;-61
2021/09/28 10:01:39;;;;;;;;;;;;;;;21.91;45.59;100150.97;5031829;28;1953;-61
2021/09/28 10:04:09;;;;;;;;;;;;;;;21.80;45.55;100150.66;5031849;28;803;-61
2021/09/28 10:06:36;;;;;;;;;;;;;;;21.79;45.93;100154.75;5013976;28;1320;-61
2021/09/28 10:09:12;;;;;;;;;;;;;;;21.91;45.39;100152.97;5031904;28;869;-61
2021/09/28 10:11:39;;;;;;;;;;;;;;;21.89;45.56;100149.88;5031564;28;834;-61
2021/09/28 10:14:06;;;;;;;;;;;;;;;22.00;44.92;100147.34;5013936;28;1263;-62
2021/09/28 10:16:33;;;;;;;;;;;;;;;21.94;45.55;100161.28;5031580;28;1382;-61
2021/09/28 10:19:01;;;;;;;;;;;;;;;21.74;45.57;100149.72;5031473;28;1442;-61
2021/09/28 10:21:38;;;;;;;;;;;;;;;21.78;45.89;100162.38;5031528;28;1981;-61
2021/09/28 10:24:24;;;;;;;;;;;;;;;21.81;45.53;100153.00;5031573;28;807;-61
2021/09/28 10:26:59;;;;;;;;;;;;;;;21.89;45.67;100152.69;5031552;28;830;-61
2021/09/28 10:29:38;;;;;;;;;;;;;;;21.87;45.82;100152.38;5031415;28;862;-61
2021/09/28 10:32:32;;;;;;;;;;;;;;;22.15;45.16;100153.88;5031556;28;826;-61
2021/09/28 10:35:05;;;;;;;;;;;;;;;22.21;44.75;100157.59;5031467;28;912;-61
2021/09/28 10:37:44;;;;;;;;;;;;;;;22.10;44.51;100153.72;5033272;28;807;-61
2021/09/28 10:40:17;;;;;;;;;;;;;;;22.11;44.52;100146.84;5035561;28;846;-61
2021/09/28 10:42:59;;;;;;;;;;;;;;;22.09;44.58;100149.34;5035358;28;897;-61
2021/09/28 10:45:32;;;;;;;;;;;;;;;22.12;44.44;100154.81;5035441;28;846;-61
2021/09/28 10:48:06;;;;;;;;;;;;;;;22.08;44.77;100156.22;5035401;28;787;-61
2021/09/28 10:50:41;;;;;;;;;;;;;;;21.87;44.53;100155.19;5035600;28;842;-61
2021/09/28 10:53:19;;;;;;;;;;;;;;;21.57;45.60;100154.91;5035266;28;881;-61
2021/09/28 10:56:04;;;;;;;;;;;;;;;21.23;45.91;100153.97;5035281;28;806;-61
2021/09/28 10:58:48;;;;;;;;;;;;;;;21.20;46.39;100163.31;5017445;28;1259;-61
2021/09/28 11:01:15;;;;;;;;;;;;;;;21.29;46.61;100162.56;5035075;28;1945;-61
2021/09/28 11:03:42;;;;;;;;;;;;;;;21.44;46.10;100159.94;5035058;28;912;-61
2021/09/28 11:06:10;;;;;;;;;;;;;;;21.50;45.74;100160.88;5035071;28;803;-61
2021/09/28 11:08:37;;;;;;;;;;;;;;;21.67;45.82;100162.09;5034962;28;854;-61
2021/09/28 11:11:04;;;;;;;;;;;;;;;21.62;45.72;100162.75;5034902;28;881;-61
2021/09/28 11:13:32;;;;;;;;;;;;;;;21.25;46.34;100165.53;5034939;28;783;-61
2021/09/28 11:15:59;;;;;;;;;;;;;;;21.20;46.72;100160.53;5034906;28;1049;-61
2021/09/28 11:18:27;;;;;;;;;;;;;;;21.04;47.00;100160.81;5034679;28;1293;-61
2021/09/28 11:21:05;;;;;;;;;;;;;;;20.85;47.16;100162.81;5034704;28;1910;-61
2021/09/28 11:23:32;;;;;;;;;;;;;;;21.06;47.16;100161.94;5034745;28;807;-61
2021/09/28 11:25:57;;;;;;;;;;;;;;;21.26;46.92;100161.47;5034787;28;818;-61
2021/09/28 11:28:24;;;;;;;;;;;;;;;21.28;46.21;100169.44;5034697;28;886;-61
2021/09/28 11:30:58;;;;;;;;;;;;;;;21.29;46.50;100170.97;5034600;28;862;-61
2021/09/28 11:33:25;;;;;;;;;;;;;;;21.46;46.52;100163.81;5034587;28;795;-61
2021/09/28 11:36:00;;;;;;;;;;;;;;;21.71;45.96;100159.91;5034675;28;823;-61
2021/09/28 11:38:30;;;;;;;;;;;;;;;22.06;45.46;100162.31;5034684;28;835;-61
2021/09/28 11:41:09;;;;;;;;;;;;;;;22.24;44.81;100155.91;5034552;28;1914;-61
2021/09/28 11:43:37;;;;;;;;;;;;;;;22.36;44.39;100151.31;5034382;28;957;-61
2021/09/28 11:46:05;;;;;;;;;;;;;;;22.44;44.54;100155.34;5034383;28;940;-61
2021/09/28 11:48:40;;;;;;;;;;;;;;;22.39;44.11;100156.78;5033797;28;862;-61
2021/09/28 11:51:08;;;;;;;;;;;;;;;22.26;44.48;100155.44;5034537;28;862;-61
2021/09/28 11:53:43;;;;;;;;;;;;;;;22.33;44.38;100153.03;5034458;28;799;-61
2021/09/28 11:56:10;;;;;;;;;;;;;;;22.37;44.37;100152.88;5034456;28;842;-61
2021/09/28 11:58:38;;;;;;;;;;;;;;;22.64;44.11;100143.53;5034141;28;865;-61
2021/09/28 12:01:11;;;;;;;;;;;;;;;22.87;44.05;100146.81;5034027;28;1943;-61
2021/09/28 12:04:00;;;;;;;;;;;;;;;23.02;43.29;100151.28;5034041;28;795;-61
2021/09/28 12:06:35;;;;;;;;;;;;;;;22.86;42.86;100146.03;5033952;28;823;-61
2021/09/28 12:09:02;;;;;;;;;;;;;;;22.65;43.04;100147.09;5033888;28;987;-61
2021/09/28 12:11:33;;;;;;;;;;;;;;;22.65;42.71;100139.44;5033805;28;803;-61
2021/09/28 12:14:00;;;;;;;;;;;;;;;22.43;43.30;100150.97;5016113;28;1410;-61
2021/09/28 12:16:36;;;;;;;;;;;;;;;22.16;43.83;100149.78;5033893;28;908;-61
2021/09/28 12:19:05;;;;;;;;;;;;;;;21.97;44.34;100151.09;5033588;28;1454;-61
2021/09/28 12:21:31;;;;;;;;;;;;;;;21.98;44.53;100155.50;5033708;28;1977;-61
2021/09/28 12:24:19;;;;;;;;;;;;;;;22.14;44.31;100154.34;5033788;28;791;-61
2021/09/28 12:26:47;;;;;;;;;;;;;;;22.32;44.22;100157.13;5033560;28;810;-61
2021/09/28 12:29:22;;;;;;;;;;;;;;;22.28;44.07;100159.31;5034011;28;815;-61
2021/09/28 12:31:49;;;;;;;;;;;;;;;22.16;44.17;100161.03;5033498;28;854;-61
2021/09/28 12:34:16;;;;;;;;;;;;;;;22.02;44.62;100151.25;5033458;28;815;-61
2021/09/28 12:36:43;;;;;;;;;;;;;;;22.05;44.73;100155.16;5033373;28;969;-61
2021/09/28 12:39:11;;;;;;;;;;;;;;;22.00;44.33;100158.63;5033273;28;929;-61
2021/09/28 12:41:56;;;;;;;;;;;;;;;21.81;44.60;100161.44;5033224;28;1951;-61
2021/09/28 12:44:24;;;;;;;;;;;;;;;21.54;45.38;100155.88;5033224;28;893;-61
2021/09/28 12:46:51;;;;;;;;;;;;;;;21.33;45.67;100161.13;5033260;28;786;-61
2021/09/28 12:49:30;;;;;;;;;;;;;;;21.36;45.51;100167.88;5033156;28;838;-61
2021/09/28 12:51:57;;;;;;;;;;;;;;;21.35;45.57;100155.84;5033176;28;810;-61
2021/09/28 12:54:24;;;;;;;;;;;;;;;21.44;45.65;100154.31;5033208;28;838;-61
2021/09/28 12:56:51;;;;;;;;;;;;;;;21.50;45.81;100160.88;5032967;28;944;-61
2021/09/28 12:59:18;;;;;;;;;;;;;;;21.47;45.38;100154.16;5032204;28;873;-61
2021/09/28 13:01:48;;;;;;;;;;;;;;;21.33;45.26;100160.38;5032694;28;1949;-61
2021/09/28 13:04:17;;;;;;;;;;;;;;;21.14;45.71;100160.34;5033129;28;811;-61
2021/09/28 13:06:45;;;;;;;;;;;;;;;21.09;46.33;100155.34;5032767;28;830;-61
2021/09/28 13:09:12;;;;;;;;;;;;;;;21.17;45.91;100159.44;5032900;28;815;-61
2021/09/28 13:11:39;;;;;;;;;;;;;;;21.17;46.14;100156.63;5032717;28;862;-61